Time;durP1;ratioP1;P1;durP2;ratioP2;P2;SDS_P1;SDS_P2;PMS_P1;PMS_P2;Temp;Humidity;BMP_temperature;BMP_pressure;BME280_temperature;BME280_humidity;BME280_pressure;Samples;Min_cycle;Max_cycle;Signal;HPM_P1;HPM_P2
2021/08/20 02:45:17;;;;;;;10.88;6.85;;;17.30;97.80;;;;;;5877758;24;20124;31
2021/08/20 02:47:44;;;;;;;10.63;8.05;;;17.20;97.90;;;;;;4819204;29;20055;-76
2021/08/20 02:50:10;;;;;;;9.55;6.75;;;17.30;98.30;;;;;;4818777;29;20053;-78
2021/08/20 02:52:36;;;;;;;11.52;6.38;;;17.20;98.50;;;;;;4833924;29;20035;-78
2021/08/20 02:55:02;;;;;;;8.45;6.35;;;17.20;98.30;;;;;;4818627;29;20031;-76
2021/08/20 02:57:35;;;;;;;9.93;6.18;;;17.10;98.20;;;;;;4832330;29;20068;-77
2021/08/20 03:00:03;;;;;;;9.52;6.20;;;17.10;98.20;;;;;;4832651;29;20076;-78
2021/08/20 03:02:33;;;;;;;9.13;6.45;;;17.20;97.90;;;;;;4817778;29;20031;-76
2021/08/20 03:04:59;;;;;;;11.43;6.57;;;17.10;98.10;;;;;;4818624;29;20034;-78
2021/08/20 03:07:25;;;;;;;13.80;7.73;;;17.10;97.80;;;;;;4818780;29;20318;-78
2021/08/20 03:09:51;;;;;;;12.68;7.00;;;17.10;98.00;;;;;;4818669;29;20076;-78
2021/08/20 03:12:18;;;;;;;9.82;7.72;;;17.10;97.80;;;;;;4833532;29;20030;-78
2021/08/20 03:14:49;;;;;;;9.60;7.20;;;17.20;97.70;;;;;;4818398;29;20407;-78
2021/08/20 03:17:15;;;;;;;12.77;8.05;;;17.10;97.70;;;;;;4818079;29;20035;-78
2021/08/20 03:19:41;;;;;;;13.23;6.80;;;17.10;98.00;;;;;;4832293;29;20045;-76
2021/08/20 03:22:07;;;;;;;11.57;7.22;;;17.10;97.80;;;;;;4832035;29;20102;-77
2021/08/20 03:24:34;;;;;;;12.57;7.80;;;17.00;97.60;;;;;;4832006;29;20026;-76
2021/08/20 03:26:59;;;;;;;10.00;7.35;;;17.00;97.40;;;;;;4803906;29;20222;-76
2021/08/20 03:29:25;;;;;;;11.05;6.85;;;17.00;97.30;;;;;;4835843;29;20073;-78
2021/08/20 03:32:17;;;;;;;12.52;7.20;;;17.00;97.40;;;;;;4835394;29;20050;-78
2021/08/20 03:34:46;;;;;;;11.02;7.88;;;17.00;97.40;;;;;;4820311;29;20368;-78
2021/08/20 03:37:14;;;;;;;10.57;7.97;;;17.00;97.50;;;;;;4835226;29;20042;-78
2021/08/20 03:39:43;;;;;;;13.88;7.32;;;17.00;97.60;;;;;;4835330;29;20121;-76
2021/08/20 03:42:11;;;;;;;12.38;8.60;;;16.90;97.80;;;;;;4834247;29;20109;-76
2021/08/20 03:44:42;;;;;;;14.77;8.88;;;16.90;97.80;;;;;;4834643;29;20374;-77
2021/08/20 03:47:11;;;;;;;14.13;10.15;;;16.90;98.00;;;;;;4808266;29;20078;-77
2021/08/20 03:49:36;;;;;;;14.82;8.82;;;16.80;98.50;;;;;;4783268;30;20043;-77
2021/08/20 03:52:02;;;;;;;13.25;8.93;;;16.80;98.60;;;;;;4783238;30;20038;-77
2021/08/20 03:54:34;;;;;;;12.88;9.13;;;16.80;99.00;;;;;;4783987;30;20035;-77
2021/08/20 03:57:00;;;;;;;11.95;8.57;;;16.90;99.20;;;;;;4783343;30;20192;-77
2021/08/20 03:59:26;;;;;;;14.05;8.05;;;16.90;99.00;;;;;;4783314;30;20039;-77
2021/08/20 04:02:05;;;;;;;12.90;8.60;;;16.90;98.90;;;;;;4782745;30;20035;-77
2021/08/20 04:04:32;;;;;;;12.10;8.02;;;17.00;99.50;;;;;;4783445;30;20117;-77
2021/08/20 04:07:06;;;;;;;11.68;8.70;;;17.00;99.60;;;;;;4797927;30;20027;-77
2021/08/20 04:09:46;;;;;;;12.23;8.50;;;17.10;99.30;;;;;;4796525;29;20039;-77
2021/08/20 04:12:23;;;;;;;13.63;8.63;;;17.10;99.10;;;;;;4798776;30;20076;-79
2021/08/20 04:15:10;;;;;;;12.20;8.80;;;17.10;99.40;;;;;;4811344;29;20046;-78
2021/08/20 04:17:36;;;;;;;14.73;8.73;;;17.20;99.40;;;;;;4814095;29;20080;-78
2021/08/20 04:20:03;;;;;;;13.48;8.40;;;17.20;99.20;;;;;;4814269;29;20230;-78
2021/08/20 04:22:29;;;;;;;21.67;9.82;;;17.20;99.10;;;;;;4814335;29;20035;-78
2021/08/20 04:24:55;;;;;;;12.27;8.52;;;17.20;99.40;;;;;;4814030;29;20032;-78
2021/08/20 04:27:54;;;;;;;11.63;7.65;;;17.20;99.20;;;;;;4789049;30;20042;-78
2021/08/20 04:30:33;;;;;;;12.05;8.88;;;17.30;99.10;;;;;;4782560;30;20111;-78
2021/08/20 04:33:35;;;;;;;15.80;8.95;;;17.30;99.00;;;;;;4762669;30;20044;-78
2021/08/20 04:36:20;;;;;;;10.50;7.63;;;17.30;99.20;;;;;;4762611;30;20112;-78
2021/08/20 04:39:02;;;;;;;13.10;8.52;;;17.40;99.00;;;;;;4762002;30;20039;-76
2021/08/20 04:41:46;;;;;;;10.63;7.82;;;17.50;99.20;;;;;;4761862;30;20096;-78
2021/08/20 04:44:34;;;;;;;11.27;7.93;;;17.60;99.30;;;;;;4747796;30;20036;-78
2021/08/20 04:47:09;;;;;;;14.43;8.50;;;17.60;99.70;;;;;;4762277;30;20078;-78
2021/08/20 04:50:04;;;;;;;14.50;8.77;;;17.70;99.70;;;;;;4762631;30;20036;-78
2021/08/20 04:52:59;;;;;;;15.95;8.93;;;17.90;99.70;;;;;;4708656;30;20041;-76
2021/08/20 04:55:43;;;;;;;15.43;7.72;;;18.00;99.90;;;;;;4708621;30;20037;-76
2021/08/20 04:58:09;;;;;;;11.20;7.75;;;18.10;99.60;;;;;;4708422;30;20120;-76
2021/08/20 05:00:34;;;;;;;12.32;7.07;;;18.20;99.50;;;;;;4708307;30;20064;-76
2021/08/20 05:03:00;;;;;;;10.85;6.88;;;18.30;99.30;;;;;;4708084;30;20038;-76
2021/08/20 05:05:27;;;;;;;11.23;7.53;;;18.40;99.00;;;;;;4707954;30;20042;-76
2021/08/20 05:07:53;;;;;;;20.65;8.45;;;18.50;98.70;;;;;;4742053;30;20051;-76
2021/08/20 05:10:19;;;;;;;12.20;7.15;;;18.60;98.40;;;;;;4746203;30;20048;-76
2021/08/20 05:12:45;;;;;;;10.68;7.60;;;18.70;98.40;;;;;;4760774;30;20032;-76
2021/08/20 05:15:11;;;;;;;16.42;7.57;;;18.80;98.10;;;;;;4751287;30;20043;-76
2021/08/20 05:17:37;;;;;;;9.75;7.32;;;18.90;98.00;;;;;;4753532;30;20041;-77
2021/08/20 05:20:05;;;;;;;13.82;7.63;;;19.00;97.90;;;;;;4745825;30;20080;-76
2021/08/20 05:22:51;;;;;;;11.65;7.57;;;19.00;97.70;;;;;;4760737;30;20047;-76
2021/08/20 05:25:17;;;;;;;12.13;7.40;;;19.10;97.80;;;;;;4760672;30;20048;-77
2021/08/20 05:27:44;;;;;;;13.57;8.10;;;19.20;97.70;;;;;;4760895;30;20028;-77
2021/08/20 05:30:11;;;;;;;16.10;8.18;;;19.30;97.50;;;;;;4788972;30;20027;-76
2021/08/20 05:32:37;;;;;;;14.23;7.85;;;19.30;97.40;;;;;;4824025;29;20076;-77
2021/08/20 05:35:05;;;;;;;13.43;7.95;;;19.30;97.30;;;;;;4815168;29;20046;-76
2021/08/20 05:37:31;;;;;;;12.73;7.15;;;19.50;97.10;;;;;;4814166;29;20042;-77
2021/08/20 05:39:57;;;;;;;14.38;7.40;;;19.60;96.90;;;;;;4803036;29;20043;-77
2021/08/20 05:42:22;;;;;;;15.23;7.15;;;19.60;96.60;;;;;;4819452;29;20090;-77
2021/08/20 05:44:48;;;;;;;13.02;7.18;;;19.70;96.50;;;;;;4800489;29;20031;-77
2021/08/20 05:47:14;;;;;;;11.10;6.72;;;19.80;96.50;;;;;;4805382;29;20055;-77
2021/08/20 05:49:40;;;;;;;17.50;7.28;;;19.90;96.00;;;;;;4816488;29;20034;-77
2021/08/20 05:52:06;;;;;;;15.15;6.68;;;19.90;95.80;;;;;;4797786;29;20053;-77
2021/08/20 05:54:32;;;;;;;9.68;6.07;;;20.00;95.60;;;;;;4801460;29;20092;-77
2021/08/20 05:56:59;;;;;;;8.25;6.10;;;20.00;95.50;;;;;;4811137;29;20074;-77
2021/08/20 05:59:25;;;;;;;11.10;6.97;;;20.10;95.40;;;;;;4797822;29;20054;-77
2021/08/20 06:01:51;;;;;;;9.07;6.35;;;20.30;95.10;;;;;;4815818;29;20033;-77
2021/08/20 06:04:17;;;;;;;12.70;6.53;;;20.40;94.80;;;;;;4798104;29;20023;-78
2021/08/20 06:06:43;;;;;;;15.38;7.35;;;20.50;94.40;;;;;;4813902;29;20098;-77
2021/08/20 06:09:10;;;;;;;10.30;6.68;;;20.60;94.30;;;;;;4830106;29;20232;-77
2021/08/20 06:11:36;;;;;;;11.82;6.22;;;20.70;94.00;;;;;;4803441;29;20035;-77
2021/08/20 06:14:02;;;;;;;13.15;7.00;;;20.80;93.90;;;;;;4814053;29;20039;-77
2021/08/20 06:16:27;;;;;;;10.07;7.15;;;20.90;93.70;;;;;;4813973;29;20393;-77
2021/08/20 06:18:53;;;;;;;15.73;6.45;;;20.90;93.80;;;;;;4812753;29;20038;-77
2021/08/20 06:21:19;;;;;;;13.40;6.00;;;21.10;93.50;;;;;;4825364;29;20027;-77
2021/08/20 06:23:45;;;;;;;13.07;6.65;;;21.20;93.30;;;;;;4813160;29;20034;-77
2021/08/20 06:26:11;;;;;;;15.80;5.72;;;21.30;92.70;;;;;;4814912;29;20369;-78
2021/08/20 06:28:36;;;;;;;9.35;5.75;;;21.30;92.20;;;;;;4796912;29;20043;-77
2021/08/20 06:31:04;;;;;;;10.30;6.18;;;21.40;92.10;;;;;;4796777;29;20356;-77
2021/08/20 06:33:33;;;;;;;6.93;5.20;;;21.50;92.10;;;;;;4814521;29;20110;-77
2021/08/20 06:35:59;;;;;;;12.73;5.80;;;21.70;91.40;;;;;;4811603;29;20227;-77
2021/08/20 06:38:25;;;;;;;23.02;5.50;;;22.00;91.30;;;;;;4804381;29;20099;-77
2021/08/20 06:40:51;;;;;;;15.70;6.38;;;22.20;90.60;;;;;;4801685;29;20034;-77
2021/08/20 06:43:17;;;;;;;10.00;6.03;;;22.40;90.20;;;;;;4823280;29;20026;-77
2021/08/20 06:45:42;;;;;;;10.55;5.53;;;22.60;89.30;;;;;;4797031;29;20065;-77
2021/08/20 06:48:08;;;;;;;11.30;4.82;;;22.80;88.90;;;;;;4808704;29;20038;-77
2021/08/20 06:50:34;;;;;;;15.43;5.75;;;22.90;88.40;;;;;;4808441;29;20501;-77
2021/08/20 06:53:00;;;;;;;9.93;4.57;;;23.10;88.30;;;;;;4798631;29;20032;-77
2021/08/20 06:55:29;;;;;;;9.60;4.55;;;23.20;86.20;;;;;;4809496;29;20039;-77
2021/08/20 06:57:55;;;;;;;7.07;4.32;;;23.30;85.80;;;;;;4801124;29;20358;-77
2021/08/20 07:00:21;;;;;;;15.82;4.50;;;23.40;86.00;;;;;;4829819;29;20046;-77
2021/08/20 07:02:47;;;;;;;9.80;4.30;;;23.50;83.80;;;;;;4815133;29;20027;-77
2021/08/20 07:05:14;;;;;;;14.77;4.60;;;23.60;82.30;;;;;;4815807;29;20031;-77
2021/08/20 07:07:40;;;;;;;;;;;23.70;83.20;;;;;;4802336;29;20040;-77
2021/08/20 07:10:16;;;;;;;9.70;4.53;;;23.80;82.50;;;;;;4829509;29;19905;-77
2021/08/20 07:12:43;;;;;;;10.90;4.40;;;23.90;82.20;;;;;;4815618;29;20035;-77
2021/08/20 07:15:11;;;;;;;6.88;4.22;;;24.00;81.50;;;;;;4802883;29;20057;-77
2021/08/20 07:17:37;;;;;;;12.20;3.97;;;24.10;80.80;;;;;;4814248;29;20043;-77
2021/08/20 07:20:05;;;;;;;6.63;4.32;;;24.20;78.60;;;;;;4814053;29;20051;-77
2021/08/20 07:22:31;;;;;;;8.98;4.38;;;24.30;77.30;;;;;;4814695;29;20038;-78
2021/08/20 07:24:57;;;;;;;6.63;3.92;;;24.50;76.50;;;;;;4800561;30;20028;-77
2021/08/20 07:27:22;;;;;;;8.45;4.63;;;24.50;76.40;;;;;;4829571;29;20035;-78
2021/08/20 07:29:49;;;;;;;8.73;4.05;;;24.60;76.00;;;;;;4814234;29;20035;-78
2021/08/20 07:32:15;;;;;;;6.77;3.87;;;24.70;75.00;;;;;;4814480;29;20335;-78
2021/08/20 07:34:41;;;;;;;10.50;4.00;;;24.90;75.70;;;;;;4799180;30;20031;-78
2021/08/20 07:37:07;;;;;;;11.00;4.18;;;25.00;74.50;;;;;;4814486;29;20062;-78
2021/08/20 07:39:36;;;;;;;5.88;4.18;;;25.10;74.90;;;;;;4814234;29;20031;-78
2021/08/20 07:42:02;;;;;;;9.20;3.58;;;25.30;75.10;;;;;;4814274;29;20038;-78
2021/08/20 07:44:28;;;;;;;8.90;3.83;;;25.40;74.60;;;;;;4814333;29;20031;-78
2021/08/20 07:46:54;;;;;;;7.82;4.63;;;25.50;72.60;;;;;;4804345;29;20196;-78
2021/08/20 07:49:20;;;;;;;10.77;4.18;;;25.40;72.50;;;;;;4781113;30;20042;-78
2021/08/20 07:51:46;;;;;;;8.25;4.28;;;25.50;72.20;;;;;;4782361;30;20085;-78
2021/08/20 07:54:11;;;;;;;11.98;4.47;;;25.60;72.90;;;;;;4781126;30;20235;-78
2021/08/20 07:56:37;;;;;;;6.93;3.97;;;25.70;70.70;;;;;;4796050;30;20335;-78
2021/08/20 07:59:03;;;;;;;11.23;4.50;;;25.70;72.20;;;;;;4780909;30;20044;-78
2021/08/20 08:01:29;;;;;;;8.80;4.70;;;25.80;71.00;;;;;;4796041;30;20069;-79
2021/08/20 08:03:57;;;;;;;8.07;4.32;;;25.90;72.00;;;;;;4781120;30;20080;-80
2021/08/20 08:06:27;;;;;;;8.82;4.88;;;25.90;71.90;;;;;;4785799;30;20057;-80
2021/08/20 08:08:53;;;;;;;11.52;4.47;;;26.00;69.70;;;;;;4799125;29;20107;-80
2021/08/20 08:11:20;;;;;;;7.30;4.93;;;25.90;70.00;;;;;;4781178;30;20331;-80
2021/08/20 08:13:47;;;;;;;10.55;5.82;;;25.80;71.00;;;;;;4781387;30;20289;-80
2021/08/20 08:16:13;;;;;;;9.35;4.95;;;25.80;70.30;;;;;;4798331;30;20050;-80
2021/08/20 08:18:39;;;;;;;13.63;4.57;;;25.80;69.90;;;;;;4813426;29;20039;-80
2021/08/20 08:21:05;;;;;;;7.53;4.55;;;26.00;72.50;;;;;;4813554;29;20047;-81
2021/08/20 08:23:31;;;;;;;12.13;5.03;;;26.10;69.60;;;;;;4813670;29;20028;-80
2021/08/20 08:25:57;;;;;;;6.93;4.28;;;26.20;71.70;;;;;;4813554;29;20043;-81
2021/08/20 08:28:23;;;;;;;11.70;5.38;;;26.40;70.40;;;;;;4814019;29;20056;-80
2021/08/20 08:30:50;;;;;;;9.10;4.35;;;26.50;68.90;;;;;;4813008;29;20039;-80
2021/08/20 08:33:17;;;;;;;7.15;4.35;;;26.70;69.40;;;;;;4795878;29;20037;-80
2021/08/20 08:35:43;;;;;;;9.93;5.00;;;26.80;68.90;;;;;;4798308;29;20383;-80
2021/08/20 08:38:12;;;;;;;7.88;5.03;;;26.80;66.90;;;;;;4811813;29;20262;-80
2021/08/20 08:40:42;;;;;;;10.55;4.25;;;26.90;67.50;;;;;;4799147;29;20058;-80
2021/08/20 08:43:09;;;;;;;11.57;3.80;;;26.90;69.20;;;;;;4798154;30;20027;-81
2021/08/20 08:45:36;;;;;;;9.13;3.70;;;27.00;66.40;;;;;;4798910;29;20035;-80
2021/08/20 08:48:07;;;;;;;7.93;4.65;;;27.00;67.60;;;;;;4813409;29;20057;-80
2021/08/20 08:50:36;;;;;;;12.35;3.70;;;27.10;65.20;;;;;;4797966;30;20092;-80
2021/08/20 08:53:03;;;;;;;9.23;3.97;;;27.10;66.00;;;;;;4786184;29;20038;-80
2021/08/20 08:55:29;;;;;;;;;;;27.20;64.10;;;;;;4792805;30;20157;-80
2021/08/20 08:57:54;;;;;;;10.07;4.20;;;27.40;63.40;;;;;;4797767;29;19914;-80
2021/08/20 09:00:38;;;;;;;6.35;5.07;;;27.50;64.30;;;;;;4798004;29;20035;-80
2021/08/20 09:03:05;;;;;;;16.33;5.95;;;27.50;65.60;;;;;;4798210;30;20346;-80
2021/08/20 09:05:45;;;;;;;9.65;5.53;;;27.50;66.10;;;;;;4783158;30;20046;-80
2021/08/20 09:08:18;;;;;;;11.65;5.97;;;27.30;63.70;;;;;;4797707;30;20063;-79
2021/08/20 09:11:02;;;;;;;12.25;6.25;;;27.20;64.80;;;;;;4797961;29;20062;-80
2021/08/20 09:13:30;;;;;;;11.90;6.53;;;27.20;64.30;;;;;;4812939;29;20050;-80
2021/08/20 09:16:11;;;;;;;10.43;6.05;;;27.20;64.00;;;;;;4797674;29;20110;-79
2021/08/20 09:18:37;;;;;;;9.20;5.68;;;27.20;62.90;;;;;;4783382;30;20093;-79
2021/08/20 09:21:04;;;;;;;14.18;5.63;;;27.20;65.20;;;;;;4781179;30;20025;-80
2021/08/20 09:23:30;;;;;;;11.48;4.93;;;27.40;64.30;;;;;;4794900;29;20114;-80
2021/08/20 09:25:56;;;;;;;10.75;4.95;;;27.60;63.20;;;;;;4779920;29;20032;-80
2021/08/20 09:28:33;;;;;;;10.35;5.57;;;27.50;63.40;;;;;;4780300;30;20116;-80
2021/08/20 09:31:02;;;;;;;;;;;27.70;61.30;;;;;;4812731;29;20049;-80
2021/08/20 09:33:32;;;;;;;13.98;4.80;;;27.70;63.90;;;;;;4812862;29;19976;-80
2021/08/20 09:36:10;;;;;;;5.57;3.45;;;27.80;62.20;;;;;;4799081;29;20027;-80
2021/08/20 09:38:51;;;;;;;10.85;3.63;;;27.90;63.40;;;;;;4812264;29;20042;-80
2021/08/20 09:41:32;;;;;;;8.50;3.53;;;28.10;61.80;;;;;;4812509;29;20200;-80
2021/08/20 09:44:03;;;;;;;10.15;3.60;;;28.30;60.30;;;;;;4812039;29;20031;-80
2021/08/20 09:46:43;;;;;;;6.47;3.30;;;28.60;59.20;;;;;;4819197;29;20071;-80
2021/08/20 09:49:09;;;;;;;7.45;4.55;;;28.60;60.10;;;;;;4830489;29;20034;-80
2021/08/20 09:52:01;;;;;;;6.70;3.28;;;28.60;61.20;;;;;;4802143;29;20057;-80
2021/08/20 09:54:29;;;;;;;5.63;4.13;;;28.60;58.20;;;;;;4761556;30;20063;-80
2021/08/20 09:56:56;;;;;;;8.35;4.20;;;28.50;60.00;;;;;;4736645;30;20097;-80
2021/08/20 09:59:30;;;;;;;10.15;4.38;;;28.60;60.30;;;;;;4744447;30;20133;-80
2021/08/20 10:01:57;;;;;;;7.82;3.47;;;28.70;61.00;;;;;;4736162;30;20108;-80
2021/08/20 10:04:24;;;;;;;7.63;3.63;;;28.90;59.70;;;;;;4743508;30;20074;-81
2021/08/20 10:06:51;;;;;;;;;;;29.00;57.80;;;;;;4744361;30;20036;-81
2021/08/20 10:09:20;;;;;;;8.30;3.60;;;29.00;58.20;;;;;;4757058;30;19917;-80
2021/08/20 10:11:50;;;;;;;5.63;3.00;;;29.20;58.10;;;;;;4732588;30;20176;-81
2021/08/20 10:14:19;;;;;;;4.68;3.17;;;29.30;58.00;;;;;;4728565;30;20124;-80
2021/08/20 10:16:45;;;;;;;5.40;3.78;;;29.30;55.50;;;;;;4751208;30;20044;-79
2021/08/20 10:19:11;;;;;;;7.37;3.67;;;29.30;55.10;;;;;;4745705;30;20261;-80
2021/08/20 10:21:40;;;;;;;5.47;4.30;;;29.30;55.40;;;;;;4728067;30;20029;-80
2021/08/20 10:24:08;;;;;;;5.70;3.60;;;29.30;55.20;;;;;;4737231;30;20040;-80
2021/08/20 10:26:38;;;;;;;8.15;3.90;;;29.20;56.60;;;;;;4745718;30;20067;-80
2021/08/20 10:29:05;;;;;;;13.45;4.32;;;29.30;57.50;;;;;;4748957;30;20066;-80
2021/08/20 10:31:31;;;;;;;7.55;3.15;;;29.30;56.70;;;;;;4781004;30;20073;-80
2021/08/20 10:33:57;;;;;;;6.38;3.60;;;29.30;58.20;;;;;;4802183;29;20353;-80
2021/08/20 10:36:40;;;;;;;11.05;3.97;;;29.30;57.30;;;;;;4818341;29;20034;-80
2021/08/20 10:39:07;;;;;;;11.90;3.28;;;29.30;55.80;;;;;;4819030;29;20330;-80
2021/08/20 10:41:34;;;;;;;7.72;3.72;;;29.50;54.20;;;;;;4833864;29;20041;-80
2021/08/20 10:44:11;;;;;;;4.50;3.55;;;29.60;54.70;;;;;;4820136;29;20023;-80
2021/08/20 10:46:38;;;;;;;8.82;3.90;;;29.70;54.50;;;;;;4812174;29;20050;-80
2021/08/20 10:51:55;;;;;;;5.22;3.45;;;29.60;55.20;;;;;;4801815;30;20035;-79
2021/08/20 10:54:30;;;;;;;8.63;3.25;;;29.50;55.00;;;;;;4815589;29;20042;-80
2021/08/20 10:57:03;;;;;;;6.03;3.67;;;29.70;54.20;;;;;;4815289;29;20446;-80
2021/08/20 10:59:45;;;;;;;4.78;3.45;;;29.80;54.40;;;;;;4801622;29;20102;-80
2021/08/20 11:02:23;;;;;;;8.05;4.07;;;29.90;54.30;;;;;;4833049;29;20334;-80
2021/08/20 11:05:03;;;;;;;6.50;3.35;;;29.90;51.30;;;;;;4832563;29;20226;-80
2021/08/20 11:07:35;;;;;;;7.72;3.00;;;29.80;55.80;;;;;;4812295;29;20039;-79
2021/08/20 11:10:21;;;;;;;8.95;4.00;;;30.10;55.30;;;;;;4782949;30;20077;-79
2021/08/20 11:12:53;;;;;;;8.80;2.72;;;30.30;54.30;;;;;;4783486;29;20366;-80
2021/08/20 11:15:25;;;;;;;5.25;2.70;;;30.60;52.80;;;;;;4782890;30;20047;-80
2021/08/20 11:17:54;;;;;;;8.30;3.33;;;30.70;52.50;;;;;;4832082;29;20051;-80
2021/08/20 11:20:37;;;;;;;5.78;3.20;;;30.80;51.50;;;;;;4829085;29;20057;-80
2021/08/20 11:25:50;;;;;;;9.27;3.45;;;30.70;50.50;;;;;;4800881;30;20028;-80
2021/08/20 11:28:25;;;;;;;4.82;3.40;;;30.60;52.20;;;;;;4814970;29;20137;-79
2021/08/20 11:30:56;;;;;;;6.63;2.97;;;30.70;51.40;;;;;;4814197;29;20335;-80
2021/08/20 11:33:28;;;;;;;6.75;3.40;;;30.80;50.20;;;;;;4814576;29;20035;-80
2021/08/20 11:36:01;;;;;;;7.07;3.60;;;30.80;49.50;;;;;;4799524;29;20042;-79
2021/08/20 11:38:31;;;;;;;5.63;3.10;;;30.60;49.50;;;;;;4813620;29;20046;-80
2021/08/20 11:41:08;;;;;;;4.22;2.83;;;30.30;49.60;;;;;;4799947;29;20043;-79
2021/08/20 11:43:35;;;;;;;7.47;3.30;;;30.00;51.60;;;;;;4804432;29;20028;-79
2021/08/20 11:46:06;;;;;;;4.97;3.60;;;29.90;50.20;;;;;;4814134;29;20078;-79
2021/08/20 11:48:44;;;;;;;4.45;2.85;;;29.70;49.90;;;;;;4799125;30;20315;-79
2021/08/20 11:51:22;;;;;;;6.03;3.17;;;29.50;50.10;;;;;;4809988;29;20262;-80
2021/08/20 11:53:48;;;;;;;6.05;2.90;;;29.40;50.70;;;;;;4824643;29;20031;-80
2021/08/20 11:56:16;;;;;;;4.68;3.42;;;29.40;51.50;;;;;;4814222;29;20335;-80
2021/08/20 11:58:43;;;;;;;5.47;2.95;;;29.30;50.30;;;;;;4803972;29;20042;-80
2021/08/20 12:01:28;;;;;;;8.18;3.28;;;29.30;52.90;;;;;;4808613;29;20604;-80
2021/08/20 12:03:56;;;;;;;6.82;3.83;;;29.40;55.10;;;;;;4799778;29;20038;-80
2021/08/20 12:06:23;;;;;;;6.63;3.67;;;29.50;52.70;;;;;;4798867;29;20065;-79
2021/08/20 12:08:51;;;;;;;6.00;3.53;;;29.50;51.00;;;;;;4798494;30;20338;-80
2021/08/20 12:11:22;;;;;;;7.97;3.53;;;29.40;51.60;;;;;;4783843;30;20035;-79
2021/08/20 12:13:54;;;;;;;6.32;3.45;;;29.20;51.70;;;;;;4783796;30;20043;-80
2021/08/20 12:16:36;;;;;;;6.78;3.53;;;29.10;52.20;;;;;;4799925;30;20579;-79
2021/08/20 12:19:23;;;;;;;7.18;3.83;;;29.20;52.60;;;;;;4813684;29;20277;-79
2021/08/20 12:21:56;;;;;;;5.93;3.20;;;29.10;51.20;;;;;;4813791;29;20037;-79
2021/08/20 12:24:48;;;;;;;5.20;3.08;;;28.90;52.30;;;;;;4794683;29;20105;-80
2021/08/20 12:27:27;;;;;;;7.35;3.25;;;28.90;52.70;;;;;;4782177;30;20043;-80
2021/08/20 12:30:00;;;;;;;8.90;3.75;;;28.70;52.20;;;;;;4795855;30;20423;-80
2021/08/20 12:32:27;;;;;;;10.88;3.95;;;28.60;52.60;;;;;;4795712;30;20035;-79
2021/08/20 12:35:04;;;;;;;5.53;3.33;;;28.40;54.50;;;;;;4781971;29;20074;-78
2021/08/20 12:37:30;;;;;;;;;;;28.20;53.30;;;;;;4802653;29;20093;-79
2021/08/20 12:40:08;;;;;;;4.82;2.92;;;28.10;53.60;;;;;;4815097;29;19921;-79
2021/08/20 12:42:42;;;;;;;4.20;2.88;;;28.20;55.20;;;;;;4812995;29;20042;-79
2021/08/20 12:45:11;;;;;;;8.00;3.35;;;28.10;53.20;;;;;;4812846;29;20080;-79
2021/08/20 12:47:37;;;;;;;8.40;3.47;;;28.20;55.80;;;;;;4809346;29;20055;-79
2021/08/20 12:50:04;;;;;;;4.88;3.50;;;28.40;53.80;;;;;;4797628;29;20339;-79
2021/08/20 12:52:30;;;;;;;6.15;3.60;;;28.70;53.20;;;;;;4798360;29;20110;-79
2021/08/20 12:54:56;;;;;;;5.05;2.88;;;28.80;54.00;;;;;;4783386;30;20330;-79
2021/08/20 12:57:22;;;;;;;5.97;2.77;;;29.00;51.80;;;;;;4799523;29;20031;-79
2021/08/20 12:59:59;;;;;;;6.43;3.10;;;28.90;53.30;;;;;;4783093;30;20383;-78
2021/08/20 13:02:24;;;;;;;8.80;3.72;;;28.90;53.70;;;;;;4813500;29;20119;-79
2021/08/20 13:04:50;;;;;;;8.03;3.50;;;29.00;55.90;;;;;;4797706;30;20043;-79
2021/08/20 13:07:16;;;;;;;10.27;4.00;;;29.10;54.60;;;;;;4782684;30;20105;-79
2021/08/20 13:09:42;;;;;;;5.25;3.38;;;29.20;54.90;;;;;;4777086;30;20038;-79
2021/08/20 13:12:08;;;;;;;5.97;3.40;;;29.40;53.00;;;;;;4795696;29;20047;-80
2021/08/20 13:14:33;;;;;;;6.60;4.03;;;29.30;51.90;;;;;;4779957;30;20050;-79
2021/08/20 13:16:59;;;;;;;11.23;3.23;;;29.10;51.20;;;;;;4815263;29;20346;-79
2021/08/20 13:19:25;;;;;;;4.65;3.20;;;29.00;53.20;;;;;;4815621;29;20263;-79
2021/08/20 13:21:51;;;;;;;5.77;3.60;;;29.10;52.10;;;;;;4811910;29;20260;-79
2021/08/20 13:24:17;;;;;;;6.10;3.67;;;29.30;54.00;;;;;;4823816;29;20084;-79
2021/08/20 13:26:43;;;;;;;6.57;3.53;;;29.60;55.10;;;;;;4807570;29;20097;-79
2021/08/20 13:29:11;;;;;;;5.55;3.08;;;29.80;52.60;;;;;;4786725;29;20050;-80
2021/08/20 13:31:36;;;;;;;6.15;3.35;;;30.00;52.70;;;;;;4808744;29;20047;-79
2021/08/20 13:34:02;;;;;;;6.03;3.20;;;29.90;50.10;;;;;;4794396;30;20119;-79
2021/08/20 13:36:28;;;;;;;5.53;3.53;;;30.10;51.80;;;;;;4820005;29;20037;-79
2021/08/20 13:38:54;;;;;;;6.00;3.00;;;30.30;51.90;;;;;;4815489;29;20043;-79
2021/08/20 13:41:19;;;;;;;4.37;3.57;;;30.50;49.60;;;;;;4815495;29;20023;-79
2021/08/20 13:43:45;;;;;;;4.37;3.13;;;30.60;50.50;;;;;;4800299;29;20038;-79
2021/08/20 13:46:11;;;;;;;5.63;3.53;;;30.70;49.30;;;;;;4808988;29;20134;-79
2021/08/20 13:48:37;;;;;;;9.60;3.50;;;30.60;49.20;;;;;;4811602;29;20031;-79
2021/08/20 13:51:02;;;;;;;5.40;3.43;;;30.40;49.20;;;;;;4788069;29;20023;-79
2021/08/20 13:53:28;;;;;;;5.47;3.13;;;30.30;49.30;;;;;;4790107;29;20273;-79
2021/08/20 13:55:54;;;;;;;7.23;4.10;;;30.10;50.10;;;;;;4814756;29;20089;-79
2021/08/20 13:58:20;;;;;;;6.33;3.40;;;29.90;51.00;;;;;;4786233;29;20031;-79
2021/08/20 14:00:46;;;;;;;6.60;3.23;;;29.70;51.10;;;;;;4815820;29;20098;-80
2021/08/20 14:03:11;;;;;;;7.17;3.90;;;29.60;50.70;;;;;;4815606;29;20251;-79
2021/08/20 14:05:38;;;;;;;6.43;3.57;;;29.40;51.50;;;;;;4805345;29;20039;-79
2021/08/20 14:08:07;;;;;;;7.05;3.75;;;29.30;52.40;;;;;;4803426;30;20040;-79
2021/08/20 14:10:33;;;;;;;8.10;3.45;;;29.50;51.80;;;;;;4803005;30;20068;-79
2021/08/20 14:12:59;;;;;;;7.17;3.77;;;29.60;52.30;;;;;;4803086;29;20031;-79
2021/08/20 14:15:25;;;;;;;6.97;3.23;;;29.80;51.70;;;;;;4817927;29;20329;-78
2021/08/20 14:17:50;;;;;;;8.40;4.03;;;29.90;49.70;;;;;;4817618;29;20039;-78
2021/08/20 14:20:16;;;;;;;4.60;3.77;;;29.80;49.20;;;;;;4804110;30;20031;-78
2021/08/20 14:22:42;;;;;;;6.97;3.03;;;29.90;49.20;;;;;;4826973;29;20064;-78
2021/08/20 14:25:10;;;;;;;6.57;3.60;;;30.10;49.10;;;;;;4802707;29;20035;-78
2021/08/20 14:27:36;;;;;;;5.80;3.22;;;30.30;49.60;;;;;;4816471;29;20116;-78
2021/08/20 14:30:03;;;;;;;6.20;4.30;;;30.40;50.30;;;;;;4817945;29;20377;-77
2021/08/20 14:32:30;;;;;;;6.35;3.35;;;30.30;48.30;;;;;;4822566;29;20285;-78
2021/08/20 14:34:56;;;;;;;7.38;4.18;;;30.30;51.30;;;;;;4807208;29;20330;-78
2021/08/20 14:37:23;;;;;;;5.53;4.07;;;30.40;50.30;;;;;;4804009;29;20084;-78
2021/08/20 14:39:49;;;;;;;6.20;3.72;;;30.40;50.30;;;;;;4817558;29;20051;-78
2021/08/20 14:42:14;;;;;;;5.10;3.70;;;30.40;50.90;;;;;;4802850;30;20043;-78
2021/08/20 14:44:40;;;;;;;8.53;3.17;;;30.60;50.00;;;;;;4791057;29;20048;-79
2021/08/20 14:47:06;;;;;;;4.03;3.30;;;30.60;48.40;;;;;;4797017;29;20070;-78
2021/08/20 14:49:32;;;;;;;6.70;3.23;;;30.60;47.80;;;;;;4821745;29;20039;-78
2021/08/20 14:51:58;;;;;;;7.37;3.83;;;30.70;48.00;;;;;;4822117;29;20045;-78
2021/08/20 14:54:24;;;;;;;8.35;4.30;;;30.70;47.10;;;;;;4820775;29;20055;-78
2021/08/20 14:56:50;;;;;;;5.27;3.50;;;30.70;47.60;;;;;;4805548;29;20114;-78
2021/08/20 14:59:15;;;;;;;5.63;4.00;;;30.70;46.30;;;;;;4818020;29;20046;-78
2021/08/20 15:01:41;;;;;;;7.77;3.50;;;30.50;44.80;;;;;;4818040;29;20030;-78
2021/08/20 15:04:07;;;;;;;4.47;3.10;;;30.50;45.90;;;;;;4802601;29;20034;-78
2021/08/20 15:06:33;;;;;;;6.50;3.37;;;30.50;45.90;;;;;;4802820;29;20035;-78
2021/08/20 15:08:59;;;;;;;4.17;3.07;;;30.40;47.40;;;;;;4817653;29;20399;-78
2021/08/20 15:11:25;;;;;;;4.97;3.50;;;30.30;46.60;;;;;;4829324;29;20039;-78
2021/08/20 15:13:50;;;;;;;6.90;3.27;;;30.20;46.20;;;;;;4818431;29;20211;-78
2021/08/20 15:16:18;;;;;;;4.63;3.30;;;30.20;45.10;;;;;;4814082;29;20031;-78
2021/08/20 15:18:44;;;;;;;4.60;3.28;;;30.00;45.30;;;;;;4799554;30;20040;-79
2021/08/20 15:21:10;;;;;;;4.85;3.60;;;30.00;46.10;;;;;;4799878;30;20248;-78
2021/08/20 15:23:36;;;;;;;5.20;3.58;;;30.00;45.00;;;;;;4800327;30;20031;-78
2021/08/20 15:26:04;;;;;;;8.48;3.45;;;29.90;44.30;;;;;;4800620;29;20027;-78
2021/08/20 15:28:30;;;;;;;4.15;2.90;;;29.90;42.80;;;;;;4827424;29;20027;-78
2021/08/20 15:30:56;;;;;;;3.77;3.37;;;29.80;43.20;;;;;;4820904;29;20046;-78
2021/08/20 15:33:22;;;;;;;5.50;3.38;;;29.80;43.20;;;;;;4813976;29;20043;-78
2021/08/20 15:35:49;;;;;;;4.97;3.53;;;29.90;44.80;;;;;;4799183;29;20164;-78
2021/08/20 15:38:16;;;;;;;6.82;4.07;;;29.90;43.20;;;;;;4814113;29;20039;-78
2021/08/20 15:40:42;;;;;;;3.72;2.83;;;29.90;43.30;;;;;;4814219;29;20031;-78
2021/08/20 15:43:10;;;;;;;6.43;3.30;;;29.80;41.90;;;;;;4814345;29;20035;-78